ダルエスサラーム の空港の天気 - METARとTAF

ジュリウス・ニエレレ国際空港(ダルエスサラーム) ( HTDA / DAR ) - タンザニア ダルエスサラーム
飛行場実況気象(Metar)
観測時間08/22 19:00 EAT (08/22 16:00 UTC)
風向・風速南南東 4m/s
視程10km以上
天気現象
少しの雲 雲底高度 520m
気温25℃
湿度78%
気圧1016hPa
METARHTDA 221600Z 16008KT 9999 FEW017 25/21 Q1016 NOSIG
過去の天気等 Google飛行場航空写真 Wunderground天気予報

過去48時間のMETAR

飛行場予報(TAF)
発表時間: 8/22 14:00 EAT (8/22 11:00 UTC)
予報対象時間: 22日15時 EAT ~ 23日21時 EAT
風向・風速南南東 10m/s
視程10km以上
全天の8割程度の雲 雲底高度 760m
22日21時 EAT ~ 22日23時 EAT に徐々に
風向・風速南東 5m/s
全天の4割程度の雲 雲底高度 520m
23日6時 EAT ~ 23日8時 EAT に一時的に
視程5000m
天気現象地霧
TAF HTDA 221100Z 2212/2318 16020KT 9999 BKN025
BECMG 2218/2220 13010KT SCT017
TEMPO 2303/2305 5000 MIFG